sensor_id;sensor_type;location;lat;lon;timestamp;pressure;altitude;pressure_sealevel;temperature;humidity
79370;BME280;68835;53.096;17.932;2023-09-07T00:01:00;101891.37;;;15.95;75.60
79370;BME280;68835;53.096;17.932;2023-09-07T00:03:36;101889.79;;;15.93;75.82
79370;BME280;68835;53.096;17.932;2023-09-07T00:06:08;101890.48;;;15.93;75.97
79370;BME280;68835;53.096;17.932;2023-09-07T00:08:35;101888.90;;;15.92;75.88
79370;BME280;68835;53.096;17.932;2023-09-07T00:11:04;101889.95;;;15.92;76.02
79370;BME280;68835;53.096;17.932;2023-09-07T00:13:33;101889.58;;;15.91;76.27
79370;BME280;68835;53.096;17.932;2023-09-07T00:16:02;101887.29;;;15.91;76.64
79370;BME280;68835;53.096;17.932;2023-09-07T00:18:31;101886.58;;;15.88;76.93
79370;BME280;68835;53.096;17.932;2023-09-07T00:20:59;101886.93;;;15.90;76.98
79370;BME280;68835;53.096;17.932;2023-09-07T00:23:28;101886.60;;;15.92;77.12
79370;BME280;68835;53.096;17.932;2023-09-07T00:25:56;101887.30;;;15.94;77.40
79370;BME280;68835;53.096;17.932;2023-09-07T00:28:23;101886.25;;;15.95;77.46
79370;BME280;68835;53.096;17.932;2023-09-07T00:30:51;101885.89;;;15.94;77.50
79370;BME280;68835;53.096;17.932;2023-09-07T00:33:18;101890.46;;;15.90;77.48
79370;BME280;68835;53.096;17.932;2023-09-07T00:35:45;101892.92;;;15.88;77.48
79370;BME280;68835;53.096;17.932;2023-09-07T00:38:12;101889.73;;;15.87;77.48
79370;BME280;68835;53.096;17.932;2023-09-07T00:40:43;101888.16;;;15.87;77.80
79370;BME280;68835;53.096;17.932;2023-09-07T00:43:12;101892.38;;;15.86;77.54
79370;BME280;68835;53.096;17.932;2023-09-07T00:45:40;101889.55;;;15.86;77.76
79370;BME280;68835;53.096;17.932;2023-09-07T00:48:08;101887.43;;;15.86;77.91
79370;BME280;68835;53.096;17.932;2023-09-07T00:50:36;101886.20;;;15.85;77.85
79370;BME280;68835;53.096;17.932;2023-09-07T00:53:03;101879.99;;;15.82;77.75
79370;BME280;68835;53.096;17.932;2023-09-07T00:55:33;101880.69;;;15.80;77.89
79370;BME280;68835;53.096;17.932;2023-09-07T00:58:03;101881.05;;;15.82;77.82
79370;BME280;68835;53.096;17.932;2023-09-07T01:00:32;101878.06;;;15.81;78.01
79370;BME280;68835;53.096;17.932;2023-09-07T01:03:00;101881.39;;;15.78;77.99
79370;BME280;68835;53.096;17.932;2023-09-07T01:05:43;101881.36;;;15.75;78.34
79370;BME280;68835;53.096;17.932;2023-09-07T01:08:23;101884.87;;;15.71;78.38
79370;BME280;68835;53.096;17.932;2023-09-07T01:10:52;101884.33;;;15.70;78.39
79370;BME280;68835;53.096;17.932;2023-09-07T01:13:19;101884.70;;;15.72;78.69
79370;BME280;68835;53.096;17.932;2023-09-07T01:15:48;101883.12;;;15.74;78.45
79370;BME280;68835;53.096;17.932;2023-09-07T01:18:15;101884.35;;;15.74;78.29
79370;BME280;68835;53.096;17.932;2023-09-07T01:20:45;101886.61;;;15.71;78.59
79370;BME280;68835;53.096;17.932;2023-09-07T01:23:14;101890.84;;;15.69;78.54
79370;BME280;68835;53.096;17.932;2023-09-07T01:25:42;101886.77;;;15.68;78.94
79370;BME280;68835;53.096;17.932;2023-09-07T01:28:10;101883.92;;;15.65;78.77
79370;BME280;68835;53.096;17.932;2023-09-07T01:30:37;101884.42;;;15.64;79.04
79370;BME280;68835;53.096;17.932;2023-09-07T01:33:06;101884.09;;;15.65;78.98
79370;BME280;68835;53.096;17.932;2023-09-07T01:35:34;101881.77;;;15.62;78.83
79370;BME280;68835;53.096;17.932;2023-09-07T01:38:02;101882.61;;;15.57;78.83
79370;BME280;68835;53.096;17.932;2023-09-07T01:40:30;101885.40;;;15.53;78.96
79370;BME280;68835;53.096;17.932;2023-09-07T01:42:57;101892.80;;;15.51;79.36
79370;BME280;68835;53.096;17.932;2023-09-07T01:45:24;101891.02;;;15.50;79.01
79370;BME280;68835;53.096;17.932;2023-09-07T01:47:52;101892.25;;;15.49;79.33
79370;BME280;68835;53.096;17.932;2023-09-07T01:50:19;101887.82;;;15.45;79.09
79370;BME280;68835;53.096;17.932;2023-09-07T01:52:47;101889.73;;;15.43;79.08
79370;BME280;68835;53.096;17.932;2023-09-07T01:55:17;101889.55;;;15.42;79.59
79370;BME280;68835;53.096;17.932;2023-09-07T01:57:45;101884.23;;;15.39;79.20
79370;BME280;68835;53.096;17.932;2023-09-07T02:00:12;101882.81;;;15.38;79.58
79370;BME280;68835;53.096;17.932;2023-09-07T02:02:42;101883.48;;;15.35;79.62
79370;BME280;68835;53.096;17.932;2023-09-07T02:05:10;101882.91;;;15.29;79.83
79370;BME280;68835;53.096;17.932;2023-09-07T02:07:37;101883.60;;;15.28;79.57
79370;BME280;68835;53.096;17.932;2023-09-07T02:10:06;101885.36;;;15.27;79.71
79370;BME280;68835;53.096;17.932;2023-09-07T02:12:33;101882.02;;;15.26;79.66
79370;BME280;68835;53.096;17.932;2023-09-07T02:15:01;101884.29;;;15.26;79.80
79370;BME280;68835;53.096;17.932;2023-09-07T02:17:29;101886.21;;;15.25;79.89
79370;BME280;68835;53.096;17.932;2023-09-07T02:19:58;101881.63;;;15.23;80.14
79370;BME280;68835;53.096;17.932;2023-09-07T02:22:25;101885.30;;;15.20;80.41
79370;BME280;68835;53.096;17.932;2023-09-07T02:24:52;101881.59;;;15.20;80.40
79370;BME280;68835;53.096;17.932;2023-09-07T02:27:19;101882.47;;;15.19;80.52
79370;BME280;68835;53.096;17.932;2023-09-07T02:29:47;101881.21;;;15.17;80.25
79370;BME280;68835;53.096;17.932;2023-09-07T02:32:15;101883.30;;;15.14;80.50
79370;BME280;68835;53.096;17.932;2023-09-07T02:34:42;101881.48;;;15.09;80.42
79370;BME280;68835;53.096;17.932;2023-09-07T02:37:10;101882.85;;;15.04;80.36
79370;BME280;68835;53.096;17.932;2023-09-07T02:39:37;101880.71;;;15.02;80.95
79370;BME280;68835;53.096;17.932;2023-09-07T02:42:05;101885.27;;;15.00;80.81
79370;BME280;68835;53.096;17.932;2023-09-07T02:44:32;101881.19;;;14.98;80.85
79370;BME280;68835;53.096;17.932;2023-09-07T02:46:59;101889.63;;;14.94;80.87
79370;BME280;68835;53.096;17.932;2023-09-07T02:49:27;101883.27;;;14.92;80.94
79370;BME280;68835;53.096;17.932;2023-09-07T02:51:54;101885.23;;;14.94;80.88
79370;BME280;68835;53.096;17.932;2023-09-07T02:54:22;101888.59;;;14.95;81.11
79370;BME280;68835;53.096;17.932;2023-09-07T02:56:51;101888.23;;;14.97;81.09
79370;BME280;68835;53.096;17.932;2023-09-07T02:59:18;101888.77;;;14.97;81.17
79370;BME280;68835;53.096;17.932;2023-09-07T03:01:47;101888.64;;;15.01;81.37
79370;BME280;68835;53.096;17.932;2023-09-07T03:04:15;101891.14;;;15.05;81.43
79370;BME280;68835;53.096;17.932;2023-09-07T03:06:42;101889.27;;;15.11;81.36
79370;BME280;68835;53.096;17.932;2023-09-07T03:09:09;101888.42;;;15.16;81.37
79370;BME280;68835;53.096;17.932;2023-09-07T03:11:38;101887.93;;;15.18;81.46
79370;BME280;68835;53.096;17.932;2023-09-07T03:14:06;101888.47;;;15.20;81.48
79370;BME280;68835;53.096;17.932;2023-09-07T03:16:33;101887.07;;;15.21;81.41
79370;BME280;68835;53.096;17.932;2023-09-07T03:19:00;101888.32;;;15.23;81.70
79370;BME280;68835;53.096;17.932;2023-09-07T03:21:27;101885.85;;;15.24;81.99
79370;BME280;68835;53.096;17.932;2023-09-07T03:23:57;101889.60;;;15.28;82.54
79370;BME280;68835;53.096;17.932;2023-09-07T03:26:25;101885.24;;;15.34;82.42
79370;BME280;68835;53.096;17.932;2023-09-07T03:28:52;101888.81;;;15.38;82.18
79370;BME280;68835;53.096;17.932;2023-09-07T03:31:20;101888.70;;;15.44;81.88
79370;BME280;68835;53.096;17.932;2023-09-07T03:33:47;101887.83;;;15.48;82.42
79370;BME280;68835;53.096;17.932;2023-09-07T03:36:15;101890.14;;;15.49;82.38
79370;BME280;68835;53.096;17.932;2023-09-07T03:38:43;101892.28;;;15.53;82.58
79370;BME280;68835;53.096;17.932;2023-09-07T03:41:11;101894.44;;;15.58;82.47
79370;BME280;68835;53.096;17.932;2023-09-07T03:43:38;101891.98;;;15.60;82.44
79370;BME280;68835;53.096;17.932;2023-09-07T03:46:08;101894.34;;;15.66;82.70
79370;BME280;68835;53.096;17.932;2023-09-07T03:48:36;101894.91;;;15.71;82.52
79370;BME280;68835;53.096;17.932;2023-09-07T03:51:07;101897.92;;;15.72;82.69
79370;BME280;68835;53.096;17.932;2023-09-07T03:53:34;101899.71;;;15.74;82.81
79370;BME280;68835;53.096;17.932;2023-09-07T03:56:02;101901.67;;;15.77;82.75
79370;BME280;68835;53.096;17.932;2023-09-07T03:58:31;101904.19;;;15.84;82.71
79370;BME280;68835;53.096;17.932;2023-09-07T04:00:59;101904.60;;;15.91;82.58
79370;BME280;68835;53.096;17.932;2023-09-07T04:03:27;101903.55;;;15.94;82.56
79370;BME280;68835;53.096;17.932;2023-09-07T04:05:54;101902.67;;;15.95;82.65
79370;BME280;68835;53.096;17.932;2023-09-07T04:08:22;101903.03;;;15.98;82.55
79370;BME280;68835;53.096;17.932;2023-09-07T04:10:50;101905.16;;;15.98;82.68
79370;BME280;68835;53.096;17.932;2023-09-07T04:13:17;101904.29;;;15.99;82.43
79370;BME280;68835;53.096;17.932;2023-09-07T04:15:44;101905.02;;;16.01;82.33
79370;BME280;68835;53.096;17.932;2023-09-07T04:18:13;101910.66;;;16.03;82.47
79370;BME280;68835;53.096;17.932;2023-09-07T04:20:43;101911.06;;;16.08;82.50
79370;BME280;68835;53.096;17.932;2023-09-07T04:23:12;101911.06;;;16.07;82.53
79370;BME280;68835;53.096;17.932;2023-09-07T04:25:40;101916.17;;;16.08;82.36
79370;BME280;68835;53.096;17.932;2023-09-07T04:28:08;101917.25;;;16.10;82.30
79370;BME280;68835;53.096;17.932;2023-09-07T04:30:39;101916.56;;;16.12;82.46
79370;BME280;68835;53.096;17.932;2023-09-07T04:33:07;101916.55;;;16.12;82.39
79370;BME280;68835;53.096;17.932;2023-09-07T04:35:36;101918.85;;;16.12;82.39
79370;BME280;68835;53.096;17.932;2023-09-07T04:38:04;101922.03;;;16.14;82.66
79370;BME280;68835;53.096;17.932;2023-09-07T04:40:32;101920.44;;;16.14;82.66
79370;BME280;68835;53.096;17.932;2023-09-07T04:43:00;101918.19;;;16.19;82.55
79370;BME280;68835;53.096;17.932;2023-09-07T04:45:27;101913.07;;;16.22;82.45
79370;BME280;68835;53.096;17.932;2023-09-07T04:47:55;101922.45;;;16.26;82.24
79370;BME280;68835;53.096;17.932;2023-09-07T04:50:22;101926.02;;;16.29;82.22
79370;BME280;68835;53.096;17.932;2023-09-07T04:52:49;101925.85;;;16.32;82.32
79370;BME280;68835;53.096;17.932;2023-09-07T04:55:17;101931.35;;;16.35;82.50
79370;BME280;68835;53.096;17.932;2023-09-07T04:57:44;101929.75;;;16.35;82.11
79370;BME280;68835;53.096;17.932;2023-09-07T05:00:12;101935.95;;;16.38;82.29
79370;BME280;68835;53.096;17.932;2023-09-07T05:02:40;101937.38;;;16.38;82.14
79370;BME280;68835;53.096;17.932;2023-09-07T05:05:10;101937.89;;;16.37;82.24
79370;BME280;68835;53.096;17.932;2023-09-07T05:07:37;101937.71;;;16.37;82.32
79370;BME280;68835;53.096;17.932;2023-09-07T05:10:05;101941.61;;;16.40;82.15
79370;BME280;68835;53.096;17.932;2023-09-07T05:12:35;101943.02;;;16.41;82.37
79370;BME280;68835;53.096;17.932;2023-09-07T05:15:04;101941.45;;;16.42;82.15
79370;BME280;68835;53.096;17.932;2023-09-07T05:17:33;101943.59;;;16.45;82.17
79370;BME280;68835;53.096;17.932;2023-09-07T05:20:00;101945.19;;;16.49;82.19
79370;BME280;68835;53.096;17.932;2023-09-07T05:22:28;101942.90;;;16.51;82.12
79370;BME280;68835;53.096;17.932;2023-09-07T05:24:56;101943.08;;;16.52;82.29
79370;BME280;68835;53.096;17.932;2023-09-07T05:27:23;101945.58;;;16.56;82.18
79370;BME280;68835;53.096;17.932;2023-09-07T05:29:50;101946.66;;;16.61;81.94
79370;BME280;68835;53.096;17.932;2023-09-07T05:32:17;101946.84;;;16.63;81.85
79370;BME280;68835;53.096;17.932;2023-09-07T05:34:45;101948.09;;;16.66;82.11
79370;BME280;68835;53.096;17.932;2023-09-07T05:37:12;101948.47;;;16.70;82.04
79370;BME280;68835;53.096;17.932;2023-09-07T05:39:40;101949.39;;;16.75;81.87
79370;BME280;68835;53.096;17.932;2023-09-07T05:42:07;101952.95;;;16.77;82.22
79370;BME280;68835;53.096;17.932;2023-09-07T05:44:34;101952.08;;;16.81;81.76
79370;BME280;68835;53.096;17.932;2023-09-07T05:47:04;101952.45;;;16.89;81.70
79370;BME280;68835;53.096;17.932;2023-09-07T05:49:31;101953.89;;;16.96;81.34
79370;BME280;68835;53.096;17.932;2023-09-07T05:51:59;101959.92;;;17.02;81.39
79370;BME280;68835;53.096;17.932;2023-09-07T05:54:27;101961.34;;;17.07;81.50
79370;BME280;68835;53.096;17.932;2023-09-07T05:56:54;101959.77;;;17.08;81.09
79370;BME280;68835;53.096;17.932;2023-09-07T05:59:21;101964.18;;;17.11;81.22
79370;BME280;68835;53.096;17.932;2023-09-07T06:01:48;101967.02;;;17.11;81.40
79370;BME280;68835;53.096;17.932;2023-09-07T06:04:16;101964.56;;;17.16;80.93
79370;BME280;68835;53.096;17.932;2023-09-07T06:06:43;101966.15;;;17.22;81.09
79370;BME280;68835;53.096;17.932;2023-09-07T06:09:10;101970.05;;;17.25;80.99
79370;BME280;68835;53.096;17.932;2023-09-07T06:11:38;101969.54;;;17.28;80.82
79370;BME280;68835;53.096;17.932;2023-09-07T06:14:06;101970.42;;;17.32;80.92
79370;BME280;68835;53.096;17.932;2023-09-07T06:16:33;101975.20;;;17.37;81.00
79370;BME280;68835;53.096;17.932;2023-09-07T06:19:02;101974.15;;;17.42;80.80
79370;BME280;68835;53.096;17.932;2023-09-07T06:21:29;101978.05;;;17.46;80.83
79370;BME280;68835;53.096;17.932;2023-09-07T06:23:57;101983.38;;;17.52;80.68
79370;BME280;68835;53.096;17.932;2023-09-07T06:26:24;101983.73;;;17.56;80.60
79370;BME280;68835;53.096;17.932;2023-09-07T06:28:52;101984.27;;;17.62;80.50
79370;BME280;68835;53.096;17.932;2023-09-07T06:31:19;101983.55;;;17.71;80.28
79370;BME280;68835;53.096;17.932;2023-09-07T06:33:46;101990.15;;;17.76;80.11
79370;BME280;68835;53.096;17.932;2023-09-07T06:36:13;101992.63;;;17.79;79.97
79370;BME280;68835;53.096;17.932;2023-09-07T06:38:41;101994.56;;;17.80;79.93
79370;BME280;68835;53.096;17.932;2023-09-07T06:41:09;101988.73;;;17.84;79.87
79370;BME280;68835;53.096;17.932;2023-09-07T06:43:38;101989.61;;;17.87;79.78
79370;BME280;68835;53.096;17.932;2023-09-07T06:46:08;101992.63;;;17.93;79.77
79370;BME280;68835;53.096;17.932;2023-09-07T06:48:36;101993.15;;;17.99;79.71
79370;BME280;68835;53.096;17.932;2023-09-07T06:51:05;101997.58;;;18.07;79.45
79370;BME280;68835;53.096;17.932;2023-09-07T06:53:33;102000.21;;;18.17;79.28
79370;BME280;68835;53.096;17.932;2023-09-07T06:56:02;102001.10;;;18.26;79.20
79370;BME280;68835;53.096;17.932;2023-09-07T06:58:30;102003.19;;;18.41;79.07
79370;BME280;68835;53.096;17.932;2023-09-07T07:01:00;102004.95;;;18.51;78.77
79370;BME280;68835;53.096;17.932;2023-09-07T07:03:29;102006.15;;;18.58;78.65
79370;BME280;68835;53.096;17.932;2023-09-07T07:05:57;102005.08;;;18.67;78.50
79370;BME280;68835;53.096;17.932;2023-09-07T07:08:25;102004.71;;;18.76;77.94
79370;BME280;68835;53.096;17.932;2023-09-07T07:10:52;102005.58;;;18.83;77.50
79370;BME280;68835;53.096;17.932;2023-09-07T07:13:20;102005.20;;;18.88;77.46
79370;BME280;68835;53.096;17.932;2023-09-07T07:15:47;102001.80;;;18.94;77.54
79370;BME280;68835;53.096;17.932;2023-09-07T07:18:14;102004.98;;;18.98;77.26
79370;BME280;68835;53.096;17.932;2023-09-07T07:20:43;102007.64;;;18.98;77.00
79370;BME280;68835;53.096;17.932;2023-09-07T07:23:11;102004.61;;;19.01;76.97
79370;BME280;68835;53.096;17.932;2023-09-07T07:25:40;102006.55;;;19.01;76.70
79370;BME280;68835;53.096;17.932;2023-09-07T07:28:07;102009.06;;;18.96;76.71
79370;BME280;68835;53.096;17.932;2023-09-07T07:30:37;102014.05;;;18.94;76.61
79370;BME280;68835;53.096;17.932;2023-09-07T07:33:05;102018.67;;;18.89;76.64
79370;BME280;68835;53.096;17.932;2023-09-07T07:35:34;102022.05;;;18.87;76.58
79370;BME280;68835;53.096;17.932;2023-09-07T07:38:03;102023.30;;;18.83;76.69
79370;BME280;68835;53.096;17.932;2023-09-07T07:40:31;102028.28;;;18.80;76.64
79370;BME280;68835;53.096;17.932;2023-09-07T07:42:59;102025.60;;;18.86;76.67
79370;BME280;68835;53.096;17.932;2023-09-07T07:45:27;102029.81;;;18.99;76.71
79370;BME280;68835;53.096;17.932;2023-09-07T07:47:54;102034.14;;;19.18;76.41
79370;BME280;68835;53.096;17.932;2023-09-07T07:50:22;102034.79;;;19.32;76.19
79370;BME280;68835;53.096;17.932;2023-09-07T07:52:49;102037.04;;;19.41;75.89
79370;BME280;68835;53.096;17.932;2023-09-07T07:55:17;102036.13;;;19.47;75.72
79370;BME280;68835;53.096;17.932;2023-09-07T07:57:44;102035.20;;;19.53;75.80
79370;BME280;68835;53.096;17.932;2023-09-07T08:00:13;102033.73;;;19.63;75.45
79370;BME280;68835;53.096;17.932;2023-09-07T08:02:46;102032.11;;;19.68;75.05
79370;BME280;68835;53.096;17.932;2023-09-07T08:05:14;102036.30;;;19.76;75.19
79370;BME280;68835;53.096;17.932;2023-09-07T08:07:41;102028.77;;;19.87;74.81
79370;BME280;68835;53.096;17.932;2023-09-07T08:10:09;102032.61;;;19.95;74.37
79370;BME280;68835;53.096;17.932;2023-09-07T08:12:36;102032.39;;;20.00;74.24
79370;BME280;68835;53.096;17.932;2023-09-07T08:15:04;102030.73;;;20.07;73.76
79370;BME280;68835;53.096;17.932;2023-09-07T08:17:32;102029.93;;;20.17;73.74
79370;BME280;68835;53.096;17.932;2023-09-07T08:20:00;102028.97;;;20.25;73.36
79370;BME280;68835;53.096;17.932;2023-09-07T08:22:27;102029.96;;;20.32;73.18
79370;BME280;68835;53.096;17.932;2023-09-07T08:24:56;102035.79;;;20.37;72.78
79370;BME280;68835;53.096;17.932;2023-09-07T08:27:23;102036.97;;;20.43;73.05
79370;BME280;68835;53.096;17.932;2023-09-07T08:29:54;102038.83;;;20.55;72.70
79370;BME280;68835;53.096;17.932;2023-09-07T08:32:21;102039.09;;;20.65;72.30
79370;BME280;68835;53.096;17.932;2023-09-07T08:34:50;102039.25;;;20.80;72.17
79370;BME280;68835;53.096;17.932;2023-09-07T08:37:17;102039.48;;;20.92;71.68
79370;BME280;68835;53.096;17.932;2023-09-07T08:39:47;102038.71;;;20.97;71.13
79370;BME280;68835;53.096;17.932;2023-09-07T08:42:15;102042.98;;;21.10;71.20
79370;BME280;68835;53.096;17.932;2023-09-07T08:44:42;102036.63;;;21.19;70.83
79370;BME280;68835;53.096;17.932;2023-09-07T08:47:14;102035.95;;;21.30;70.45
79370;BME280;68835;53.096;17.932;2023-09-07T08:49:43;102035.08;;;21.44;69.92
79370;BME280;68835;53.096;17.932;2023-09-07T08:52:14;102033.40;;;21.61;69.54
79370;BME280;68835;53.096;17.932;2023-09-07T08:54:43;102032.61;;;21.77;69.39
79370;BME280;68835;53.096;17.932;2023-09-07T08:57:11;102027.88;;;21.94;69.22
79370;BME280;68835;53.096;17.932;2023-09-07T08:59:39;102026.48;;;22.13;69.06
79370;BME280;68835;53.096;17.932;2023-09-07T09:02:09;102023.88;;;22.31;68.24
79370;BME280;68835;53.096;17.932;2023-09-07T09:04:37;102027.98;;;22.50;68.29
79370;BME280;68835;53.096;17.932;2023-09-07T09:07:06;102026.77;;;22.65;67.62
79370;BME280;68835;53.096;17.932;2023-09-07T09:09:34;102023.97;;;22.81;66.84
79370;BME280;68835;53.096;17.932;2023-09-07T09:12:09;102021.94;;;22.94;66.12
79370;BME280;68835;53.096;17.932;2023-09-07T09:14:36;102020.83;;;23.04;65.27
79370;BME280;68835;53.096;17.932;2023-09-07T09:17:03;102023.90;;;23.19;65.62
79370;BME280;68835;53.096;17.932;2023-09-07T09:19:35;102019.34;;;23.39;65.16
79370;BME280;68835;53.096;17.932;2023-09-07T09:22:02;102018.06;;;23.56;64.61
79370;BME280;68835;53.096;17.932;2023-09-07T09:24:33;102017.81;;;23.75;64.26
79370;BME280;68835;53.096;17.932;2023-09-07T09:27:02;102014.04;;;23.90;63.05
79370;BME280;68835;53.096;17.932;2023-09-07T09:29:34;102007.08;;;24.03;62.20
79370;BME280;68835;53.096;17.932;2023-09-07T09:32:06;102005.11;;;24.17;62.10
79370;BME280;68835;53.096;17.932;2023-09-07T09:34:35;102003.81;;;24.32;61.22
79370;BME280;68835;53.096;17.932;2023-09-07T09:37:03;102005.21;;;24.48;60.99
79370;BME280;68835;53.096;17.932;2023-09-07T09:39:31;102003.52;;;24.57;60.47
79370;BME280;68835;53.096;17.932;2023-09-07T09:41:59;102007.14;;;24.75;59.61
79370;BME280;68835;53.096;17.932;2023-09-07T09:44:28;102010.45;;;24.89;59.23
79370;BME280;68835;53.096;17.932;2023-09-07T09:46:57;102011.41;;;25.05;58.66
79370;BME280;68835;53.096;17.932;2023-09-07T09:49:26;102008.33;;;25.20;57.83
79370;BME280;68835;53.096;17.932;2023-09-07T09:51:55;102008.61;;;25.34;58.28
79370;BME280;68835;53.096;17.932;2023-09-07T09:54:26;102007.34;;;25.56;57.79
79370;BME280;68835;53.096;17.932;2023-09-07T09:56:55;102008.06;;;25.78;57.71
79370;BME280;68835;53.096;17.932;2023-09-07T09:59:22;101999.63;;;26.05;55.70
79370;BME280;68835;53.096;17.932;2023-09-07T10:01:52;101996.56;;;26.26;55.17
79370;BME280;68835;53.096;17.932;2023-09-07T10:04:21;101998.29;;;26.48;54.96
79370;BME280;68835;53.096;17.932;2023-09-07T10:06:54;101996.17;;;26.67;53.53
79370;BME280;68835;53.096;17.932;2023-09-07T10:09:22;101991.53;;;26.85;53.78
79370;BME280;68835;53.096;17.932;2023-09-07T10:11:54;101993.45;;;27.05;53.33
79370;BME280;68835;53.096;17.932;2023-09-07T10:14:21;101993.17;;;27.32;53.11
79370;BME280;68835;53.096;17.932;2023-09-07T10:16:51;101997.88;;;27.52;52.09
79370;BME280;68835;53.096;17.932;2023-09-07T10:19:21;102001.29;;;27.75;51.64
79370;BME280;68835;53.096;17.932;2023-09-07T10:21:50;101997.67;;;28.01;51.29
79370;BME280;68835;53.096;17.932;2023-09-07T10:24:26;101997.14;;;28.21;49.76
79370;BME280;68835;53.096;17.932;2023-09-07T10:27:01;101998.09;;;28.41;49.27
79370;BME280;68835;53.096;17.932;2023-09-07T10:29:44;101992.47;;;28.66;49.16
79370;BME280;68835;53.096;17.932;2023-09-07T10:32:13;101997.69;;;28.97;48.10
79370;BME280;68835;53.096;17.932;2023-09-07T10:34:42;101994.75;;;29.21;47.46
79370;BME280;68835;53.096;17.932;2023-09-07T10:37:14;101993.71;;;29.46;46.24
79370;BME280;68835;53.096;17.932;2023-09-07T10:39:44;101992.45;;;29.68;45.86
79370;BME280;68835;53.096;17.932;2023-09-07T10:42:22;101987.52;;;29.87;45.46
79370;BME280;68835;53.096;17.932;2023-09-07T10:44:51;101990.95;;;30.12;45.07
79370;BME280;68835;53.096;17.932;2023-09-07T10:47:18;101990.98;;;30.28;43.38
79370;BME280;68835;53.096;17.932;2023-09-07T10:49:47;101988.84;;;30.48;42.92
79370;BME280;68835;53.096;17.932;2023-09-07T10:52:14;101987.46;;;30.67;41.43
79370;BME280;68835;53.096;17.932;2023-09-07T10:54:42;101989.02;;;30.79;41.17
79370;BME280;68835;53.096;17.932;2023-09-07T10:57:11;101989.16;;;30.99;40.89
79370;BME280;68835;53.096;17.932;2023-09-07T10:59:45;101989.40;;;31.20;41.27
79370;BME280;68835;53.096;17.932;2023-09-07T11:02:13;101985.97;;;31.55;40.22
79370;BME280;68835;53.096;17.932;2023-09-07T11:04:42;101983.48;;;31.91;39.99
79370;BME280;68835;53.096;17.932;2023-09-07T11:07:09;101985.70;;;32.35;37.97
79370;BME280;68835;53.096;17.932;2023-09-07T11:09:43;101981.55;;;32.58;36.50
79370;BME280;68835;53.096;17.932;2023-09-07T11:12:14;101981.09;;;32.79;36.44
79370;BME280;68835;53.096;17.932;2023-09-07T11:14:48;101984.82;;;33.12;37.04
79370;BME280;68835;53.096;17.932;2023-09-07T11:17:16;101981.36;;;33.34;35.38
79370;BME280;68835;53.096;17.932;2023-09-07T11:19:44;101978.81;;;33.56;35.40
79370;BME280;68835;53.096;17.932;2023-09-07T11:22:11;101972.73;;;33.89;34.86
79370;BME280;68835;53.096;17.932;2023-09-07T11:24:39;101973.26;;;34.21;34.66
79370;BME280;68835;53.096;17.932;2023-09-07T11:27:08;101970.13;;;34.53;33.96
79370;BME280;68835;53.096;17.932;2023-09-07T11:29:36;101966.11;;;34.68;32.85
79370;BME280;68835;53.096;17.932;2023-09-07T11:32:10;101962.15;;;34.88;32.93
79370;BME280;68835;53.096;17.932;2023-09-07T11:34:52;101965.83;;;35.22;32.48
79370;BME280;68835;53.096;17.932;2023-09-07T11:37:23;101964.08;;;35.35;31.38
79370;BME280;68835;53.096;17.932;2023-09-07T11:39:51;101959.71;;;35.38;31.19
79370;BME280;68835;53.096;17.932;2023-09-07T11:42:19;101957.27;;;35.63;31.06
79370;BME280;68835;53.096;17.932;2023-09-07T11:44:46;101959.17;;;35.99;31.06
79370;BME280;68835;53.096;17.932;2023-09-07T11:47:13;101957.88;;;36.50;30.84
79370;BME280;68835;53.096;17.932;2023-09-07T11:49:41;101960.90;;;36.98;30.12
79370;BME280;68835;53.096;17.932;2023-09-07T11:52:09;101960.45;;;37.19;28.54
79370;BME280;68835;53.096;17.932;2023-09-07T11:54:36;101955.51;;;37.22;28.56
79370;BME280;68835;53.096;17.932;2023-09-07T11:57:04;101955.73;;;37.21;28.11
79370;BME280;68835;53.096;17.932;2023-09-07T11:59:31;101957.55;;;37.19;28.75
79370;BME280;68835;53.096;17.932;2023-09-07T12:01:59;101958.66;;;37.40;28.18
79370;BME280;68835;53.096;17.932;2023-09-07T12:04:27;101958.65;;;37.52;28.66
79370;BME280;68835;53.096;17.932;2023-09-07T12:06:54;101956.85;;;37.47;27.76
79370;BME280;68835;53.096;17.932;2023-09-07T12:09:22;101954.63;;;37.54;28.49
79370;BME280;68835;53.096;17.932;2023-09-07T12:11:49;101954.85;;;37.98;28.17
79370;BME280;68835;53.096;17.932;2023-09-07T12:14:17;101950.66;;;38.45;27.80
79370;BME280;68835;53.096;17.932;2023-09-07T12:16:44;101953.38;;;38.70;27.40
79370;BME280;68835;53.096;17.932;2023-09-07T12:19:11;101949.23;;;38.67;27.25
79370;BME280;68835;53.096;17.932;2023-09-07T12:21:39;101948.45;;;38.86;26.21
79370;BME280;68835;53.096;17.932;2023-09-07T12:24:06;101947.25;;;38.47;26.74
79370;BME280;68835;53.096;17.932;2023-09-07T12:26:33;101943.90;;;37.89;27.63
79370;BME280;68835;53.096;17.932;2023-09-07T12:29:01;101943.03;;;38.18;26.49
79370;BME280;68835;53.096;17.932;2023-09-07T12:31:29;101937.83;;;38.31;26.53
79370;BME280;68835;53.096;17.932;2023-09-07T12:33:58;101931.65;;;38.52;25.81
79370;BME280;68835;53.096;17.932;2023-09-07T12:36:25;101934.24;;;38.74;25.70
79370;BME280;68835;53.096;17.932;2023-09-07T12:38:56;101930.80;;;38.83;24.70
79370;BME280;68835;53.096;17.932;2023-09-07T12:41:29;101929.19;;;38.91;25.00
79370;BME280;68835;53.096;17.932;2023-09-07T12:43:57;101922.80;;;39.12;24.75
79370;BME280;68835;53.096;17.932;2023-09-07T12:46:25;101921.01;;;39.40;24.71